createdAt,value
2019-05-17T00:00:28.924Z,14.30
2019-05-17T00:02:59.509Z,14.40
2019-05-17T00:05:29.872Z,14.30
2019-05-17T00:07:59.334Z,14.40
2019-05-17T00:10:29.806Z,14.40
2019-05-17T00:12:59.315Z,14.50
2019-05-17T00:15:28.878Z,14.40
2019-05-17T00:17:59.212Z,14.30
2019-05-17T00:20:29.970Z,14.20
2019-05-17T00:23:00.394Z,14.20
2019-05-17T00:25:29.955Z,14.20
2019-05-17T00:27:59.411Z,14.30
2019-05-17T00:30:28.925Z,14.20
2019-05-17T00:32:58.646Z,14.20
2019-05-17T00:35:28.163Z,14.30
2019-05-17T00:37:58.527Z,14.30
2019-05-17T00:40:27.954Z,14.10
2019-05-17T00:42:57.429Z,14.20
2019-05-17T00:45:26.894Z,14.20
2019-05-17T00:47:57.358Z,14.20
2019-05-17T00:50:27.514Z,14.20
2019-05-17T00:52:58.036Z,14.10
2019-05-17T00:55:29.462Z,14.00
2019-05-17T00:57:58.882Z,14.00
2019-05-17T01:00:29.422Z,14.00
2019-05-17T01:02:58.843Z,14.00
2019-05-17T01:05:29.310Z,14.00
2019-05-17T01:07:58.801Z,14.00
2019-05-17T01:10:28.317Z,13.90
2019-05-17T01:12:58.871Z,13.90
2019-05-17T01:15:30.185Z,13.90
2019-05-17T01:17:59.964Z,13.90
2019-05-17T01:20:29.498Z,13.90
2019-05-17T01:22:58.944Z,13.80
2019-05-17T01:25:30.966Z,13.90
2019-05-17T01:28:00.431Z,13.90
2019-05-17T01:30:33.633Z,13.90
2019-05-17T01:33:06.397Z,13.90
2019-05-17T01:35:38.557Z,13.80
2019-05-17T01:38:07.991Z,13.80
2019-05-17T01:40:37.570Z,13.70
2019-05-17T01:43:09.678Z,13.60
2019-05-17T01:45:39.234Z,13.60
2019-05-17T01:48:11.294Z,13.70
2019-05-17T01:50:40.746Z,13.80
2019-05-17T01:53:11.605Z,13.60
2019-05-17T01:55:43.934Z,13.70
2019-05-17T01:58:13.316Z,13.70
2019-05-17T02:00:46.498Z,13.60
2019-05-17T02:03:20.834Z,13.50
2019-05-17T02:05:51.324Z,13.60
2019-05-17T02:08:21.274Z,13.70
2019-05-17T02:10:53.970Z,13.70
2019-05-17T02:13:23.431Z,13.60
2019-05-17T02:15:52.879Z,13.50
2019-05-17T02:18:22.349Z,13.50
2019-05-17T02:20:52.709Z,13.60
2019-05-17T02:23:22.265Z,13.50
2019-05-17T02:25:56.967Z,13.30
2019-05-17T02:28:23.819Z,13.30
2019-05-17T02:30:55.396Z,13.30
2019-05-17T02:33:24.970Z,13.40
2019-05-17T02:35:54.441Z,13.30
2019-05-17T02:38:25.254Z,13.30
2019-05-17T02:40:54.773Z,13.30
2019-05-17T02:43:25.128Z,13.20
2019-05-17T02:45:55.526Z,13.00
2019-05-17T02:48:25.070Z,13.10
2019-05-17T02:50:54.529Z,13.20
2019-05-17T02:53:25.587Z,13.20
2019-05-17T02:55:55.085Z,13.20
2019-05-17T02:58:25.563Z,13.20
2019-05-17T03:00:55.964Z,13.20
2019-05-17T03:03:26.333Z,13.10
2019-05-17T03:05:55.822Z,13.20
2019-05-17T03:08:25.299Z,13.20
2019-05-17T03:10:54.832Z,13.20
2019-05-17T03:13:24.322Z,13.30
2019-05-17T03:15:54.247Z,13.20
2019-05-17T03:18:23.834Z,13.20
2019-05-17T03:20:53.342Z,13.30
2019-05-17T03:23:23.404Z,13.30
2019-05-17T03:25:54.033Z,13.20
2019-05-17T03:28:24.086Z,13.10
2019-05-17T03:30:56.869Z,13.20
2019-05-17T03:33:35.593Z,13.00
2019-05-17T03:36:06.554Z,13.00
2019-05-17T03:38:34.602Z,13.10
2019-05-17T03:41:17.109Z,13.00
2019-05-17T03:43:35.562Z,12.90
2019-05-17T03:46:09.204Z,12.90
2019-05-17T03:48:39.708Z,13.00
2019-05-17T03:51:13.156Z,13.00
2019-05-17T03:53:44.125Z,12.90
2019-05-17T03:56:14.066Z,13.00
2019-05-17T03:58:43.721Z,12.90
2019-05-17T04:01:14.089Z,12.80
2019-05-17T04:03:43.875Z,12.70
2019-05-17T04:06:13.595Z,12.70
2019-05-17T04:08:43.049Z,12.70
2019-05-17T04:11:22.308Z,12.60
2019-05-17T04:13:43.599Z,12.60
2019-05-17T04:16:13.935Z,12.60
2019-05-17T04:18:44.691Z,12.70
2019-05-17T04:21:14.178Z,12.70
2019-05-17T04:23:43.634Z,12.60
2019-05-17T04:26:18.941Z,12.60
2019-05-17T04:28:48.457Z,12.50
2019-05-17T04:31:25.124Z,12.40
2019-05-17T04:33:54.628Z,12.40
2019-05-17T04:36:24.063Z,12.30
2019-05-17T04:38:57.328Z,12.30
2019-05-17T04:41:41.475Z,12.30
2019-05-17T04:44:02.926Z,12.30
2019-05-17T04:46:33.228Z,12.20
2019-05-17T04:49:03.178Z,12.30
2019-05-17T04:51:32.815Z,12.30
2019-05-17T04:54:03.605Z,12.30
2019-05-17T04:56:33.604Z,12.30
2019-05-17T04:59:04.263Z,12.30
2019-05-17T05:01:36.315Z,12.30
2019-05-17T05:04:07.667Z,12.30
2019-05-17T05:06:37.109Z,12.30
2019-05-17T05:09:07.064Z,12.20
2019-05-17T05:11:51.915Z,12.20
2019-05-17T05:14:07.765Z,12.30
2019-05-17T05:16:37.201Z,12.20
2019-05-17T05:19:08.538Z,12.20
2019-05-17T05:21:38.067Z,12.30
2019-05-17T05:24:07.547Z,12.50
2019-05-17T05:26:36.998Z,12.40
2019-05-17T05:29:06.417Z,12.40
2019-05-17T05:31:35.838Z,12.60
2019-05-17T05:34:05.310Z,12.70
2019-05-17T05:36:34.754Z,12.50
2019-05-17T05:39:07.216Z,12.40
2019-05-17T05:41:36.705Z,12.40
2019-05-17T05:44:06.184Z,12.50
2019-05-17T05:46:35.708Z,12.50
2019-05-17T05:49:06.098Z,12.60
2019-05-17T05:51:35.570Z,12.70
2019-05-17T05:54:08.011Z,12.70
2019-05-17T05:56:37.441Z,12.80
2019-05-17T05:59:06.929Z,13.00
2019-05-17T06:01:36.457Z,13.20
2019-05-17T06:04:07.831Z,13.30
2019-05-17T06:06:41.490Z,13.50
2019-05-17T06:09:12.001Z,13.50
2019-05-17T06:11:42.574Z,13.10
2019-05-17T06:14:12.965Z,13.10
2019-05-17T06:16:42.676Z,13.10
2019-05-17T06:19:14.095Z,13.00
2019-05-17T06:21:43.542Z,12.90
2019-05-17T06:24:13.065Z,12.90
2019-05-17T06:26:44.866Z,12.90
2019-05-17T06:29:14.285Z,12.90
2019-05-17T06:31:43.758Z,13.20
2019-05-17T06:34:13.372Z,13.00
2019-05-17T06:36:42.802Z,13.00
2019-05-17T06:39:13.184Z,12.90
2019-05-17T06:41:42.632Z,12.90
2019-05-17T06:44:12.366Z,12.90
2019-05-17T06:46:42.076Z,12.90
2019-05-17T06:49:13.353Z,12.80
2019-05-17T06:51:42.846Z,13.00
2019-05-17T06:54:15.566Z,13.00
2019-05-17T06:56:46.707Z,12.90
2019-05-17T06:59:16.222Z,12.90
2019-05-17T07:01:45.662Z,12.90
2019-05-17T07:04:15.129Z,12.90
2019-05-17T07:06:46.321Z,12.80
2019-05-17T07:09:19.530Z,12.90
2019-05-17T07:11:47.958Z,12.70
2019-05-17T07:14:17.313Z,12.70
2019-05-17T07:16:47.533Z,12.60
2019-05-17T07:19:16.982Z,12.50
2019-05-17T07:21:46.477Z,12.50
2019-05-17T07:24:21.243Z,12.50
2019-05-17T07:26:50.718Z,12.60
2019-05-17T07:29:20.336Z,12.70
2019-05-17T07:31:49.849Z,12.80
2019-05-17T07:34:21.176Z,13.00
2019-05-17T07:36:51.606Z,13.10
2019-05-17T07:39:21.085Z,13.10
2019-05-17T07:41:50.580Z,13.10
2019-05-17T07:44:20.551Z,13.00
2019-05-17T07:46:51.822Z,13.00
2019-05-17T07:49:22.200Z,13.10
2019-05-17T07:51:54.100Z,13.00
2019-05-17T07:54:24.489Z,13.00
2019-05-17T07:56:55.002Z,13.10
2019-05-17T07:59:24.472Z,13.20
2019-05-17T08:01:54.857Z,13.20
2019-05-17T08:04:24.501Z,13.20
2019-05-17T08:06:56.284Z,13.30
2019-05-17T08:09:25.751Z,13.30
2019-05-17T08:11:59.599Z,13.30
2019-05-17T08:14:31.096Z,13.10
2019-05-17T08:16:59.842Z,13.10
2019-05-17T08:19:31.047Z,13.20
2019-05-17T08:22:00.519Z,13.40
2019-05-17T08:24:30.383Z,13.40
2019-05-17T08:27:00.067Z,13.40
2019-05-17T08:29:29.820Z,13.70
2019-05-17T08:32:00.358Z,13.70
2019-05-17T08:34:29.929Z,13.90
2019-05-17T08:37:01.074Z,14.30
2019-05-17T08:39:31.573Z,14.50
2019-05-17T08:42:02.008Z,14.40
2019-05-17T08:44:32.565Z,14.40
2019-05-17T08:47:03.747Z,14.30
2019-05-17T08:49:33.192Z,14.60
2019-05-17T08:52:02.757Z,14.60
2019-05-17T08:54:32.175Z,14.50
2019-05-17T08:57:01.869Z,14.60
2019-05-17T08:59:31.409Z,14.90
2019-05-17T09:02:00.843Z,14.80
2019-05-17T09:04:31.933Z,14.50
2019-05-17T09:07:03.206Z,14.30
2019-05-17T09:09:32.424Z,14.00
2019-05-17T09:12:01.771Z,14.10
2019-05-17T09:14:33.074Z,14.00
2019-05-17T09:17:02.511Z,13.90
2019-05-17T09:19:32.028Z,13.70
2019-05-17T09:22:01.556Z,13.60
2019-05-17T09:24:32.105Z,13.60
2019-05-17T09:27:02.715Z,13.60
2019-05-17T09:29:34.218Z,13.60
2019-05-17T09:32:03.916Z,13.60
2019-05-17T09:34:34.274Z,13.60
2019-05-17T09:37:03.714Z,13.90
2019-05-17T09:39:33.185Z,14.20
2019-05-17T09:42:02.632Z,14.30
2019-05-17T09:44:32.236Z,14.50
2019-05-17T09:47:02.655Z,14.70
2019-05-17T09:49:32.126Z,14.60
2019-05-17T09:52:01.572Z,14.70
2019-05-17T09:54:41.695Z,14.70
2019-05-17T09:57:02.097Z,14.90
2019-05-17T09:59:31.556Z,14.90
2019-05-17T10:02:01.089Z,14.80
2019-05-17T10:04:30.663Z,14.70
2019-05-17T10:07:00.132Z,14.70
2019-05-17T10:09:29.572Z,14.70
2019-05-17T10:12:00.659Z,14.70
2019-05-17T10:14:31.496Z,14.60
2019-05-17T10:17:01.020Z,14.80
2019-05-17T10:19:30.509Z,15.20
2019-05-17T10:22:00.024Z,15.50
2019-05-17T10:24:38.110Z,15.70
2019-05-17T10:27:01.543Z,15.50
2019-05-17T10:29:31.077Z,15.40
2019-05-17T10:32:00.653Z,15.30
2019-05-17T10:34:32.690Z,15.20
2019-05-17T10:37:07.578Z,15.00
2019-05-17T10:39:41.517Z,14.80
2019-05-17T10:42:13.377Z,14.60
2019-05-17T10:44:47.839Z,14.40
2019-05-17T10:47:22.465Z,14.40
2019-05-17T10:49:55.114Z,14.30
2019-05-17T10:52:31.982Z,14.50
2019-05-17T10:55:10.581Z,14.70
2019-05-17T10:57:43.462Z,14.50
2019-05-17T11:00:19.574Z,14.50
2019-05-17T11:02:50.284Z,14.40
2019-05-17T11:05:30.796Z,14.40
2019-05-17T11:10:56.082Z,14.40
2019-05-17T11:13:27.570Z,14.30
2019-05-17T11:16:04.603Z,14.40
2019-05-17T11:18:59.654Z,14.50
2019-05-17T11:21:25.268Z,14.50
2019-05-17T11:23:56.175Z,14.50
2019-05-17T11:26:33.782Z,14.40
2019-05-17T11:29:08.151Z,14.60
2019-05-17T11:31:40.131Z,14.60
2019-05-17T11:34:11.049Z,14.80
2019-05-17T11:36:46.209Z,14.90
2019-05-17T11:39:28.616Z,14.70
2019-05-17T11:42:01.350Z,14.70
2019-05-17T11:44:35.285Z,14.60
2019-05-17T11:47:06.772Z,14.80
2019-05-17T11:49:40.584Z,14.80
2019-05-17T11:52:15.000Z,14.80
2019-05-17T11:54:46.670Z,15.10
2019-05-17T11:57:25.543Z,15.00
2019-05-17T12:00:02.041Z,15.30
2019-05-17T12:02:47.035Z,15.80
2019-05-17T12:05:20.857Z,15.90
2019-05-17T12:07:50.559Z,16.10
2019-05-17T12:10:31.762Z,16.40
2019-05-17T12:13:14.708Z,16.50
2019-05-17T12:15:46.465Z,16.90
2019-05-17T12:18:15.932Z,17.10
2019-05-17T12:20:51.835Z,16.90
2019-05-17T12:23:31.258Z,16.80
2019-05-17T12:26:00.786Z,16.60
2019-05-17T12:28:30.341Z,16.60
2019-05-17T12:30:59.799Z,16.60
2019-05-17T12:33:30.225Z,16.70
2019-05-17T12:35:59.722Z,16.70
2019-05-17T12:38:29.350Z,16.50
2019-05-17T12:40:58.872Z,16.20
2019-05-17T12:43:30.218Z,16.20
2019-05-17T12:46:01.778Z,16.10
2019-05-17T12:48:31.503Z,16.10
2019-05-17T12:51:02.979Z,16.20
2019-05-17T12:53:32.403Z,16.20
2019-05-17T12:56:01.955Z,16.40
2019-05-17T12:58:31.438Z,16.20
2019-05-17T13:01:00.908Z,15.90
2019-05-17T13:03:30.339Z,15.50
2019-05-17T13:05:59.866Z,15.30
2019-05-17T13:08:29.370Z,15.30
2019-05-17T13:10:58.839Z,15.30
2019-05-17T13:13:29.397Z,15.40
2019-05-17T13:15:58.899Z,15.50
2019-05-17T13:18:28.419Z,15.60
2019-05-17T13:20:59.945Z,15.70
2019-05-17T13:23:30.357Z,15.90
2019-05-17T13:26:03.395Z,16.10
2019-05-17T13:28:33.783Z,16.20
2019-05-17T13:31:03.235Z,16.10
2019-05-17T13:33:34.318Z,16.10
2019-05-17T13:36:03.916Z,16.10
2019-05-17T13:38:50.849Z,15.90
2019-05-17T13:41:21.281Z,15.70
2019-05-17T13:43:50.687Z,15.70
2019-05-17T13:46:32.252Z,15.70
2019-05-17T13:48:51.449Z,15.80
2019-05-17T13:51:20.961Z,15.60
2019-05-17T13:53:50.921Z,15.70
2019-05-17T14:07:15.238Z,15.30
2019-05-17T14:48:55.478Z,16.10
2019-05-17T16:27:43.199Z,15.60
2019-05-17T16:30:13.023Z,15.60
2019-05-17T16:32:48.313Z,15.60
2019-05-17T16:35:21.124Z,15.80
2019-05-17T16:37:49.835Z,16.00
2019-05-17T16:40:20.776Z,16.00
2019-05-17T16:42:52.854Z,15.80
2019-05-17T16:45:22.223Z,15.60
2019-05-17T16:47:51.700Z,15.60
2019-05-17T16:50:21.131Z,15.50
2019-05-17T16:53:05.067Z,15.50
2019-05-17T16:55:29.535Z,15.40
2019-05-17T16:57:59.053Z,15.30
2019-05-17T17:00:34.619Z,15.40
2019-05-17T17:03:05.648Z,15.40
2019-05-17T17:05:36.318Z,15.40
2019-05-17T17:08:07.473Z,15.30
2019-05-17T17:10:36.965Z,15.50
2019-05-17T17:13:06.516Z,15.80
2019-05-17T17:15:36.077Z,15.80
2019-05-17T17:18:06.032Z,15.70
2019-05-17T17:20:35.500Z,15.70
2019-05-17T17:23:07.376Z,15.70
2019-05-17T17:25:47.590Z,15.70
2019-05-17T17:28:17.116Z,15.60
2019-05-17T17:30:46.600Z,15.40
2019-05-17T17:33:17.537Z,15.40
2019-05-17T17:35:47.189Z,15.30
2019-05-17T17:38:16.856Z,15.40
2019-05-17T17:40:48.583Z,15.50
2019-05-17T17:43:18.052Z,15.70
2019-05-17T17:45:48.517Z,16.00
2019-05-17T17:48:19.249Z,16.00
2019-05-17T17:50:48.790Z,15.80
2019-05-17T17:53:18.336Z,15.70
2019-05-17T17:55:48.071Z,15.50
2019-05-17T17:58:17.578Z,15.50
2019-05-17T18:00:47.181Z,15.60
2019-05-17T18:03:20.521Z,15.50
2019-05-17T18:05:55.896Z,15.50
2019-05-17T18:08:25.463Z,15.60
2019-05-17T18:10:55.020Z,15.60
2019-05-17T18:13:24.608Z,15.50
2019-05-17T18:15:54.102Z,15.50
2019-05-17T18:18:23.573Z,15.60
2019-05-17T18:20:54.551Z,15.70
2019-05-17T18:23:24.103Z,15.70
2019-05-17T18:25:55.770Z,15.80
2019-05-17T18:28:25.196Z,15.70
2019-05-17T18:30:54.721Z,15.50
2019-05-17T18:33:25.438Z,15.60
2019-05-17T18:35:54.938Z,15.60
2019-05-17T18:38:27.393Z,15.50
2019-05-17T18:40:56.862Z,15.50
2019-05-17T18:43:29.352Z,15.40
2019-05-17T18:45:58.881Z,15.40
2019-05-17T18:48:29.501Z,15.60
2019-05-17T18:50:59.128Z,15.70
2019-05-17T18:53:29.874Z,15.60
2019-05-17T18:56:00.278Z,15.50
2019-05-17T18:58:29.789Z,15.30
2019-05-17T19:01:02.572Z,15.30
2019-05-17T19:03:34.209Z,15.10
2019-05-17T19:06:03.729Z,15.00
2019-05-17T19:08:33.168Z,15.10
2019-05-17T19:11:03.650Z,15.10
2019-05-17T19:13:34.097Z,15.20
2019-05-17T19:16:03.597Z,15.10
2019-05-17T19:18:33.064Z,15.00
2019-05-17T19:21:02.572Z,15.00
2019-05-17T19:23:34.225Z,15.00
2019-05-17T19:26:03.809Z,14.90
2019-05-17T19:28:36.299Z,15.00
2019-05-17T19:31:06.505Z,15.20
2019-05-17T19:33:35.973Z,15.20
2019-05-17T19:36:05.473Z,15.20
2019-05-17T19:38:36.242Z,15.30
2019-05-17T19:41:07.245Z,15.10
2019-05-17T19:43:40.201Z,15.00
2019-05-17T19:46:13.568Z,14.80
2019-05-17T19:48:43.091Z,14.70
2019-05-17T19:51:12.809Z,14.90
2019-05-17T19:53:44.160Z,15.00
2019-05-17T19:56:14.522Z,14.80
2019-05-17T19:58:45.909Z,14.70
2019-05-17T20:01:15.416Z,14.70
2019-05-17T20:03:45.287Z,14.70
2019-05-17T20:06:14.880Z,14.80
2019-05-17T20:08:44.356Z,14.90
2019-05-17T20:11:13.916Z,14.90
2019-05-17T20:13:44.468Z,14.70
2019-05-17T20:16:17.049Z,14.90
2019-05-17T20:18:46.552Z,14.80
2019-05-17T20:21:16.032Z,14.70
2019-05-17T20:23:45.546Z,14.70
2019-05-17T20:26:15.129Z,14.80
2019-05-17T20:28:45.633Z,15.00
2019-05-17T20:31:15.173Z,15.00
2019-05-17T20:33:44.729Z,14.70
2019-05-17T20:36:16.380Z,14.80
2019-05-17T20:38:46.930Z,14.70
2019-05-17T20:41:16.380Z,14.60
2019-05-17T20:43:46.929Z,14.70
2019-05-17T20:46:18.487Z,14.60
2019-05-17T20:48:48.091Z,14.50
2019-05-17T20:51:17.546Z,14.50
2019-05-17T20:53:47.310Z,14.40
2019-05-17T20:56:32.017Z,14.40
2019-05-17T20:58:49.976Z,14.60
2019-05-17T21:01:20.478Z,14.60
2019-05-17T21:03:51.460Z,14.60
2019-05-17T21:06:20.981Z,14.50
2019-05-17T21:08:51.410Z,14.60
2019-05-17T21:11:22.009Z,14.40
2019-05-17T21:13:51.618Z,14.40
2019-05-17T21:16:21.050Z,14.40
2019-05-17T21:18:51.546Z,14.40
2019-05-17T21:21:21.089Z,14.30
2019-05-17T21:23:51.555Z,14.30
2019-05-17T21:26:21.918Z,14.30
2019-05-17T21:28:51.371Z,14.30
2019-05-17T21:31:21.841Z,14.70
2019-05-17T21:33:52.265Z,14.50
2019-05-17T21:36:23.070Z,14.20
2019-05-17T21:38:54.529Z,14.10
2019-05-17T21:41:29.666Z,14.10
2019-05-17T21:44:01.357Z,14.10
2019-05-17T21:46:32.868Z,14.20
2019-05-17T21:49:03.235Z,14.30
2019-05-17T21:51:32.704Z,14.20
2019-05-17T21:54:04.162Z,14.20
2019-05-17T21:56:33.625Z,14.10
2019-05-17T21:59:03.113Z,14.10
2019-05-17T22:01:33.999Z,14.20
2019-05-17T22:04:03.851Z,14.10
2019-05-17T22:06:33.298Z,14.10
2019-05-17T22:09:04.341Z,14.40
2019-05-17T22:11:35.494Z,14.30
2019-05-17T22:14:05.007Z,14.20
2019-05-17T22:16:34.458Z,14.10
2019-05-17T22:19:05.976Z,14.10
2019-05-17T22:21:35.496Z,14.10
2019-05-17T22:24:05.094Z,14.00
2019-05-17T22:26:34.558Z,14.00
2019-05-17T22:29:04.159Z,14.00
2019-05-17T22:31:33.699Z,13.90
2019-05-17T22:34:04.788Z,14.10
2019-05-17T22:36:34.287Z,14.00
2019-05-17T22:39:06.540Z,14.20
2019-05-17T22:41:36.070Z,14.20
2019-05-17T22:44:08.063Z,14.10
2019-05-17T22:46:38.374Z,14.00
2019-05-17T22:49:09.745Z,14.10
2019-05-17T22:51:41.062Z,14.20
2019-05-17T22:54:13.013Z,14.20
2019-05-17T22:56:42.655Z,14.30
2019-05-17T22:59:12.005Z,14.30
2019-05-17T23:01:44.934Z,14.20
2019-05-17T23:04:15.345Z,14.10
2019-05-17T23:06:44.867Z,14.00
2019-05-17T23:09:20.030Z,14.00
2019-05-17T23:11:52.793Z,14.10
2019-05-17T23:14:22.484Z,13.90
2019-05-17T23:16:55.576Z,13.80
2019-05-17T23:19:25.091Z,13.90
2019-05-17T23:21:54.669Z,14.10
2019-05-17T23:24:24.134Z,14.00
2019-05-17T23:26:55.613Z,13.90
2019-05-17T23:29:26.607Z,14.00
2019-05-17T23:31:56.084Z,14.00
2019-05-17T23:34:27.538Z,14.10
2019-05-17T23:36:57.337Z,14.10
2019-05-17T23:39:28.270Z,14.00
2019-05-17T23:41:57.748Z,13.90
2019-05-17T23:44:27.194Z,13.90
2019-05-17T23:47:06.613Z,13.80
2019-05-17T23:49:27.806Z,13.60
2019-05-17T23:51:57.276Z,13.60
2019-05-17T23:54:26.736Z,13.70
2019-05-17T23:56:56.216Z,13.60
2019-05-17T23:59:25.715Z,13.80
